createdAt,value
2022-10-02T00:01:28.264Z,87.15
2022-10-02T00:03:08.558Z,87.35
2022-10-02T00:04:46.552Z,87.33
2022-10-02T00:06:23.411Z,87.34
2022-10-02T00:08:05.670Z,87.09
2022-10-02T00:09:50.270Z,86.91
2022-10-02T00:11:28.920Z,86.94
2022-10-02T00:13:08.355Z,86.82
2022-10-02T00:14:43.384Z,86.83
2022-10-02T00:16:27.039Z,86.71
2022-10-02T00:18:03.959Z,86.50
2022-10-02T00:19:35.935Z,86.57
2022-10-02T00:21:40.160Z,86.24
2022-10-02T00:23:52.129Z,86.35
2022-10-02T00:25:33.995Z,86.75
2022-10-02T00:27:17.871Z,87.05
2022-10-02T00:28:56.282Z,87.18
2022-10-02T00:30:34.365Z,87.49
2022-10-02T00:32:21.286Z,87.68
2022-10-02T00:34:21.869Z,87.90
2022-10-02T00:36:00.989Z,88.38
2022-10-02T00:37:52.492Z,88.31
2022-10-02T00:39:47.889Z,88.35
2022-10-02T00:41:47.678Z,88.56
2022-10-02T00:43:27.371Z,88.58
2022-10-02T00:45:16.006Z,88.78
2022-10-02T00:46:50.625Z,88.85
2022-10-02T00:48:43.390Z,88.65
2022-10-02T00:50:44.838Z,88.86
2022-10-02T00:53:01.531Z,88.83
2022-10-02T00:55:08.957Z,88.80
2022-10-02T00:56:44.641Z,88.92
2022-10-02T00:58:16.524Z,89.00
2022-10-02T01:00:05.737Z,88.98
2022-10-02T01:01:43.403Z,88.96
2022-10-02T01:03:24.801Z,88.91
2022-10-02T01:04:58.330Z,89.09
2022-10-02T01:06:30.355Z,88.82
2022-10-02T01:08:02.684Z,88.96
2022-10-02T01:09:34.639Z,88.83
2022-10-02T01:11:07.967Z,89.00
2022-10-02T01:12:40.067Z,88.61
2022-10-02T01:14:12.861Z,88.37
2022-10-02T01:15:53.231Z,88.23
2022-10-02T01:17:28.828Z,88.27
2022-10-02T01:19:01.035Z,87.79
2022-10-02T01:20:42.082Z,87.97
2022-10-02T01:22:41.069Z,87.83
2022-10-02T01:24:19.688Z,87.60
2022-10-02T01:25:51.813Z,87.68
2022-10-02T01:27:25.192Z,87.63
2022-10-02T01:28:57.039Z,87.51
2022-10-02T01:30:30.297Z,87.66
2022-10-02T01:32:02.348Z,87.65
2022-10-02T01:33:34.995Z,87.76
2022-10-02T01:35:07.871Z,87.87
2022-10-02T01:36:40.956Z,87.81
2022-10-02T01:38:16.636Z,87.74
2022-10-02T01:39:48.721Z,87.91
2022-10-02T01:41:21.043Z,87.98
2022-10-02T01:42:53.955Z,87.56
2022-10-02T01:44:26.351Z,87.85
2022-10-02T01:46:32.896Z,87.53
2022-10-02T01:48:26.239Z,87.62
2022-10-02T01:50:13.285Z,87.83
2022-10-02T01:51:49.448Z,88.05
2022-10-02T01:53:46.407Z,87.82
2022-10-02T01:55:49.864Z,87.79
2022-10-02T01:57:28.217Z,87.75
2022-10-02T01:59:13.977Z,87.66
2022-10-02T02:01:11.633Z,87.58
2022-10-02T02:03:14.879Z,87.43
2022-10-02T02:05:09.930Z,87.36
2022-10-02T02:07:05.446Z,87.44
2022-10-02T02:08:46.809Z,87.54
2022-10-02T02:10:59.726Z,87.27
2022-10-02T02:12:34.505Z,87.72
2022-10-02T02:14:12.774Z,87.56
2022-10-02T02:15:52.951Z,87.80
2022-10-02T02:17:32.192Z,87.63
2022-10-02T02:19:14.675Z,87.57
2022-10-02T02:20:49.052Z,87.36
2022-10-02T02:22:30.572Z,87.36
2022-10-02T02:24:05.263Z,87.28
2022-10-02T02:25:43.589Z,87.48
2022-10-02T02:27:20.153Z,87.32
2022-10-02T02:28:57.066Z,87.15
2022-10-02T02:30:31.974Z,87.43
2022-10-02T02:32:08.157Z,87.44
2022-10-02T02:33:48.515Z,87.35
2022-10-02T02:35:30.376Z,87.32
2022-10-02T02:37:16.689Z,87.28
2022-10-02T02:39:01.280Z,87.01
2022-10-02T02:40:36.775Z,87.10
2022-10-02T02:42:12.113Z,86.97
2022-10-02T02:43:53.229Z,87.00
2022-10-02T02:45:30.012Z,86.72
2022-10-02T02:47:26.521Z,86.41
2022-10-02T02:49:11.309Z,86.46
2022-10-02T02:50:49.081Z,86.46
2022-10-02T02:52:36.646Z,86.16
2022-10-02T02:54:18.201Z,86.17
2022-10-02T02:55:56.764Z,86.07
2022-10-02T02:57:35.748Z,85.75
2022-10-02T02:59:11.404Z,85.76
2022-10-02T03:00:43.385Z,85.76
2022-10-02T03:02:15.396Z,85.81
2022-10-02T03:03:48.019Z,85.50
2022-10-02T03:05:20.773Z,85.66
2022-10-02T03:06:57.582Z,86.11
2022-10-02T03:08:32.611Z,85.71
2022-10-02T03:10:11.695Z,85.50
2022-10-02T03:11:54.179Z,85.89
2022-10-02T03:13:32.332Z,86.33
2022-10-02T03:15:27.031Z,86.58
2022-10-02T03:17:12.905Z,86.69
2022-10-02T03:19:02.528Z,86.43
2022-10-02T03:20:45.848Z,86.04
2022-10-02T03:22:35.778Z,85.91
2022-10-02T03:24:22.943Z,85.81
2022-10-02T03:26:02.218Z,86.03
2022-10-02T03:27:44.723Z,86.00
2022-10-02T03:29:27.300Z,86.16
2022-10-02T03:30:59.745Z,85.98
2022-10-02T03:32:33.012Z,86.04
2022-10-02T03:34:05.953Z,86.06
2022-10-02T03:35:38.409Z,86.31
2022-10-02T03:37:10.392Z,86.27
2022-10-02T03:38:42.902Z,86.40
2022-10-02T03:40:14.837Z,86.45
2022-10-02T03:41:47.033Z,86.55
2022-10-02T03:43:24.096Z,86.59
2022-10-02T03:44:56.067Z,86.55
2022-10-02T03:46:28.063Z,86.74
2022-10-02T03:48:00.238Z,87.05
2022-10-02T03:49:32.287Z,87.29
2022-10-02T03:51:04.356Z,87.33
2022-10-02T03:52:36.721Z,87.27
2022-10-02T03:54:20.827Z,87.02
2022-10-02T03:56:00.891Z,86.71
2022-10-02T03:57:34.791Z,86.04
2022-10-02T03:59:12.688Z,85.87
2022-10-02T04:00:50.372Z,85.78
2022-10-02T04:02:43.511Z,85.44
2022-10-02T04:04:23.662Z,85.32
2022-10-02T04:06:06.527Z,85.02
2022-10-02T04:07:42.974Z,84.79
2022-10-02T04:09:32.194Z,84.70
2022-10-02T04:11:22.957Z,84.67
2022-10-02T04:13:00.712Z,84.68
2022-10-02T04:15:07.651Z,84.77
2022-10-02T04:16:45.428Z,85.14
2022-10-02T04:18:54.795Z,85.36
2022-10-02T04:20:32.201Z,85.87
2022-10-02T04:22:25.477Z,86.23
2022-10-02T04:24:05.327Z,86.20
2022-10-02T04:25:47.017Z,86.22
2022-10-02T04:27:24.559Z,85.91
2022-10-02T04:29:01.707Z,85.72
2022-10-02T04:30:33.725Z,85.49
2022-10-02T04:32:14.900Z,85.28
2022-10-02T04:33:47.037Z,84.97
2022-10-02T04:35:39.087Z,84.56
2022-10-02T04:37:11.471Z,84.29
2022-10-02T04:39:18.249Z,83.67
2022-10-02T04:41:01.546Z,83.55
2022-10-02T04:42:52.279Z,83.39
2022-10-02T04:44:55.488Z,82.81
2022-10-02T04:46:52.228Z,82.70
2022-10-02T04:48:45.593Z,82.34
2022-10-02T04:50:36.423Z,82.10
2022-10-02T04:52:42.622Z,81.87
2022-10-02T04:54:39.444Z,82.02
2022-10-02T04:56:11.470Z,82.36
2022-10-02T04:57:59.756Z,82.16
2022-10-02T04:59:50.220Z,81.53
2022-10-02T05:01:34.887Z,81.93
2022-10-02T05:03:31.546Z,81.56
2022-10-02T05:05:28.069Z,81.27
2022-10-02T05:07:11.936Z,80.92
2022-10-02T05:09:02.750Z,80.42
2022-10-02T05:10:50.409Z,80.14
2022-10-02T05:12:37.859Z,79.38
2022-10-02T05:14:25.445Z,78.87
2022-10-02T05:16:09.688Z,77.58
2022-10-02T05:17:44.398Z,76.88
2022-10-02T05:19:53.824Z,75.66
2022-10-02T05:21:53.460Z,74.86
2022-10-02T05:23:38.833Z,73.20
2022-10-02T05:25:41.925Z,73.09
2022-10-02T05:27:50.037Z,72.30
2022-10-02T05:29:48.305Z,71.11
2022-10-02T05:31:32.148Z,70.88
2022-10-02T05:33:10.110Z,70.05
2022-10-02T05:34:47.897Z,69.54
2022-10-02T05:36:23.529Z,69.74
2022-10-02T05:38:06.744Z,69.32
2022-10-02T05:39:57.161Z,68.29
2022-10-02T05:41:32.199Z,68.58
2022-10-02T05:43:27.692Z,68.01
2022-10-02T05:45:23.628Z,68.12
2022-10-02T05:47:20.269Z,67.66
2022-10-02T05:48:59.536Z,67.94
2022-10-02T05:50:35.001Z,68.04
2022-10-02T05:52:19.315Z,67.69
2022-10-02T05:54:00.678Z,67.54
2022-10-02T05:55:54.429Z,68.38
2022-10-02T05:59:24.758Z,68.44
2022-10-02T06:01:23.212Z,69.03
2022-10-02T06:03:17.355Z,68.36
2022-10-02T06:04:56.637Z,66.34
2022-10-02T06:06:35.545Z,66.94
2022-10-02T06:08:11.164Z,67.47
2022-10-02T06:09:48.085Z,65.26
2022-10-02T06:11:34.689Z,64.75
2022-10-02T06:13:14.492Z,64.18
2022-10-02T06:15:07.128Z,63.65
2022-10-02T06:16:49.837Z,63.18
2022-10-02T06:18:30.117Z,62.36
2022-10-02T06:20:34.930Z,61.70
2022-10-02T06:22:08.589Z,58.70
2022-10-02T06:23:50.527Z,59.42
2022-10-02T06:25:31.742Z,58.73
2022-10-02T06:29:19.192Z,58.27
2022-10-02T06:31:18.742Z,58.12
2022-10-02T06:33:26.686Z,58.70
2022-10-02T06:34:59.454Z,57.20
2022-10-02T06:36:46.721Z,56.71
2022-10-02T06:38:51.582Z,55.58
2022-10-02T06:40:38.882Z,56.76
2022-10-02T06:42:38.416Z,56.56
2022-10-02T06:44:22.478Z,56.30
2022-10-02T13:40:16.900Z,40.91
2022-10-02T13:42:11.749Z,39.38
2022-10-02T13:44:12.383Z,39.66
2022-10-02T13:45:49.827Z,40.24
2022-10-02T13:48:00.345Z,39.68
2022-10-02T13:50:00.609Z,39.94
2022-10-02T13:51:43.193Z,40.23
2022-10-02T13:53:25.999Z,40.00
2022-10-02T13:55:26.976Z,39.80
2022-10-02T13:57:15.012Z,40.13
2022-10-02T13:59:13.946Z,40.22
2022-10-02T14:01:07.979Z,40.94
2022-10-02T14:02:46.353Z,41.21
2022-10-02T14:04:49.836Z,41.33
2022-10-02T14:06:39.252Z,41.50
2022-10-02T14:08:26.677Z,41.54
2022-10-02T14:10:11.399Z,41.94
2022-10-02T14:11:56.721Z,41.94
2022-10-02T14:13:53.514Z,42.64
2022-10-02T14:15:57.892Z,42.64
2022-10-02T14:17:36.220Z,41.30
2022-10-02T14:19:08.975Z,41.36
2022-10-02T14:21:20.273Z,42.64
2022-10-02T14:23:05.829Z,41.58
2022-10-02T14:24:58.050Z,42.24
2022-10-02T14:27:08.785Z,41.80
2022-10-02T14:29:07.674Z,42.72
2022-10-02T14:31:05.572Z,42.85
2022-10-02T14:32:42.972Z,43.44
2022-10-02T14:34:32.357Z,42.86
2022-10-02T14:36:18.690Z,42.28
2022-10-02T14:38:24.174Z,42.68
2022-10-02T14:39:58.332Z,42.23
2022-10-02T14:41:52.562Z,42.47
2022-10-02T14:43:48.939Z,42.45
2022-10-02T14:45:47.909Z,42.34
2022-10-02T14:47:23.515Z,42.29
2022-10-02T14:49:01.305Z,42.63
2022-10-02T14:50:48.287Z,42.11
2022-10-02T14:52:43.090Z,40.87
2022-10-02T14:54:43.683Z,41.67
2022-10-02T14:56:28.797Z,40.81
2022-10-02T14:58:16.344Z,41.40
2022-10-02T15:00:07.113Z,41.43
2022-10-02T15:01:47.413Z,39.97
2022-10-02T15:03:36.826Z,40.63
2022-10-02T15:05:17.582Z,40.11
2022-10-02T15:07:07.407Z,39.95
2022-10-02T15:08:43.864Z,39.91
2022-10-02T15:10:35.054Z,39.99
2022-10-02T15:12:09.250Z,40.18
2022-10-02T15:13:49.946Z,41.01
2022-10-02T15:15:27.698Z,40.95
2022-10-02T15:17:33.755Z,40.46
2022-10-02T15:19:31.990Z,40.87
2022-10-02T15:21:44.553Z,40.55
2022-10-02T15:23:45.603Z,41.36
2022-10-02T15:26:12.596Z,41.19
2022-10-02T15:28:34.467Z,41.52
2022-10-02T15:30:20.800Z,41.22
2022-10-02T15:32:28.864Z,41.56
2022-10-02T15:34:22.102Z,41.81
2022-10-02T15:36:17.973Z,41.71
2022-10-02T15:38:20.828Z,42.54
2022-10-02T15:40:03.948Z,42.30
2022-10-02T15:41:39.138Z,42.76
2022-10-02T15:43:12.653Z,42.79
2022-10-02T15:44:53.846Z,42.95
2022-10-02T15:47:18.567Z,43.05
2022-10-02T15:48:54.960Z,43.30
2022-10-02T15:51:20.915Z,43.07
2022-10-02T15:53:18.815Z,42.56
2022-10-02T15:55:36.710Z,42.64
2022-10-02T15:57:30.270Z,42.70
2022-10-02T15:59:07.353Z,42.83
2022-10-02T16:01:06.369Z,43.01
2022-10-02T16:03:04.826Z,43.82
2022-10-02T16:04:55.522Z,43.76
2022-10-02T16:06:38.331Z,43.67
2022-10-02T16:09:51.840Z,44.16
2022-10-02T16:11:35.122Z,44.60
2022-10-02T16:13:26.486Z,44.43
2022-10-02T16:15:16.721Z,44.39
2022-10-02T16:17:04.439Z,44.59
2022-10-02T16:18:39.585Z,45.29
2022-10-02T16:20:47.056Z,45.12
2022-10-02T16:22:33.129Z,45.48
2022-10-02T16:24:41.466Z,45.84
2022-10-02T16:26:31.801Z,45.31
2022-10-02T16:28:22.679Z,45.43
2022-10-02T16:30:14.550Z,45.57
2022-10-02T16:31:52.371Z,46.05
2022-10-02T16:33:32.749Z,45.96
2022-10-02T16:35:44.060Z,46.88
2022-10-02T16:39:20.413Z,49.41
2022-10-02T16:41:19.284Z,50.93
2022-10-02T16:42:51.549Z,51.52
2022-10-02T16:44:56.109Z,52.08
2022-10-02T16:46:44.719Z,54.79
2022-10-02T16:48:24.798Z,55.33
2022-10-02T16:50:03.828Z,55.87
2022-10-02T16:52:05.436Z,55.75
2022-10-02T16:54:03.115Z,57.02
2022-10-02T16:55:39.381Z,55.28
2022-10-02T16:57:46.676Z,54.67
2022-10-02T16:59:26.172Z,54.78
2022-10-02T17:01:02.506Z,53.85
2022-10-02T17:02:37.823Z,52.64
2022-10-02T17:04:24.669Z,51.22
2022-10-02T17:06:18.577Z,51.01
2022-10-02T17:09:46.097Z,49.53
2022-10-02T17:11:33.780Z,49.39
2022-10-02T17:13:19.871Z,48.96
2022-10-02T17:14:57.312Z,48.66
2022-10-02T17:17:04.130Z,48.56
2022-10-02T17:18:47.986Z,48.01
2022-10-02T17:20:21.321Z,48.36
2022-10-02T17:22:14.542Z,48.13
2022-10-02T17:23:55.484Z,48.58
2022-10-02T17:25:34.687Z,48.66
2022-10-02T17:27:48.813Z,48.93
2022-10-02T17:29:36.491Z,48.88
2022-10-02T17:31:25.969Z,48.98
2022-10-02T17:33:16.450Z,49.13
2022-10-02T17:34:50.277Z,49.12
2022-10-02T17:36:31.398Z,49.79
2022-10-02T17:38:25.834Z,49.64
2022-10-02T17:40:17.486Z,49.75
2022-10-02T17:41:56.721Z,50.04
2022-10-02T17:43:59.969Z,51.49
2022-10-02T17:45:58.921Z,51.32
2022-10-02T17:47:31.543Z,53.17
2022-10-02T17:49:03.993Z,52.13
2022-10-02T17:50:43.816Z,55.80
2022-10-02T17:52:47.024Z,56.98
2022-10-02T17:54:44.830Z,57.72
2022-10-02T17:56:31.119Z,59.08
2022-10-02T17:58:23.874Z,59.78
2022-10-02T18:00:04.156Z,60.75
2022-10-02T18:01:44.707Z,60.76
2022-10-02T18:03:38.146Z,61.07
2022-10-02T18:05:26.519Z,61.70
2022-10-02T18:07:17.989Z,61.72
2022-10-02T18:09:00.207Z,61.84
2022-10-02T18:10:49.462Z,62.04
2022-10-02T18:12:52.243Z,61.89
2022-10-02T18:14:57.343Z,61.87
2022-10-02T18:16:51.884Z,61.68
2022-10-02T18:18:42.693Z,63.07
2022-10-02T18:20:35.797Z,62.65
2022-10-02T18:22:30.400Z,63.46
2022-10-02T18:24:14.223Z,64.05
2022-10-02T18:25:51.417Z,64.89
2022-10-02T18:27:57.719Z,65.34
2022-10-02T18:30:00.454Z,65.72
2022-10-02T18:31:55.377Z,66.04
2022-10-02T18:33:38.745Z,66.39
2022-10-02T18:35:35.370Z,66.99
2022-10-02T18:37:16.650Z,67.04
2022-10-02T18:39:01.607Z,67.27
2022-10-02T18:40:50.611Z,66.60
2022-10-02T18:42:46.285Z,66.64
2022-10-02T18:44:21.620Z,67.01
2022-10-02T18:46:00.486Z,66.98
2022-10-02T18:47:42.525Z,66.78
2022-10-02T18:49:14.740Z,67.49
2022-10-02T18:51:06.954Z,67.95
2022-10-02T18:53:02.279Z,68.32
2022-10-02T18:55:12.636Z,68.67
2022-10-02T18:57:09.119Z,68.92
2022-10-02T18:59:06.809Z,69.68
2022-10-02T19:00:50.984Z,69.94
2022-10-02T19:02:54.478Z,69.78
2022-10-02T19:04:36.580Z,69.66
2022-10-02T19:06:20.680Z,69.59
2022-10-02T19:08:03.400Z,69.82
2022-10-02T19:09:35.986Z,70.11
2022-10-02T19:11:19.228Z,70.30
2022-10-02T19:12:54.566Z,70.58
2022-10-02T19:14:48.447Z,70.13
2022-10-02T19:16:27.658Z,70.16
2022-10-02T19:18:08.209Z,70.11
2022-10-02T19:19:40.985Z,70.13
2022-10-02T19:21:15.207Z,70.73
2022-10-02T19:22:50.687Z,70.72
2022-10-02T19:24:26.079Z,71.19
2022-10-02T19:26:03.655Z,71.21
2022-10-02T19:27:37.917Z,70.97
2022-10-02T19:29:37.200Z,71.42
2022-10-02T19:31:11.754Z,72.05
2022-10-02T19:32:44.175Z,71.80
2022-10-02T19:34:21.235Z,71.86
2022-10-02T19:35:53.535Z,71.95
2022-10-02T19:37:27.435Z,72.33
2022-10-02T19:39:05.691Z,72.49
2022-10-02T19:40:37.979Z,72.83
2022-10-02T19:42:18.194Z,73.28
2022-10-02T19:44:07.419Z,73.33
2022-10-02T19:45:41.757Z,73.68
2022-10-02T19:47:18.700Z,73.75
2022-10-02T19:48:56.755Z,73.71
2022-10-02T19:50:51.808Z,73.54
2022-10-02T19:52:36.209Z,73.44
2022-10-02T19:54:17.488Z,73.42
2022-10-02T19:55:58.454Z,73.00
2022-10-02T19:57:32.893Z,73.41
2022-10-02T19:59:30.455Z,73.62
2022-10-02T20:01:04.751Z,74.07
2022-10-02T20:02:40.927Z,74.28
2022-10-02T20:04:32.656Z,73.64
2022-10-02T20:06:26.768Z,73.84
2022-10-02T20:08:06.471Z,74.30
2022-10-02T20:09:51.946Z,74.63
2022-10-02T20:11:32.159Z,74.73
2022-10-02T20:13:23.984Z,74.84
2022-10-02T20:15:12.289Z,74.40
2022-10-02T20:17:03.191Z,74.38
2022-10-02T20:18:36.565Z,74.77
2022-10-02T20:20:13.569Z,74.59
2022-10-02T20:21:50.083Z,74.86
2022-10-02T20:23:27.893Z,75.41
2022-10-02T20:25:18.703Z,75.56
2022-10-02T20:26:52.457Z,75.01
2022-10-02T20:28:31.431Z,75.41
2022-10-02T20:30:17.177Z,75.38
2022-10-02T20:31:53.807Z,76.11
2022-10-02T20:33:32.298Z,75.92
2022-10-02T20:35:14.609Z,76.23
2022-10-02T20:36:59.625Z,76.43
2022-10-02T20:38:42.812Z,76.37
2022-10-02T20:40:21.083Z,76.82
2022-10-02T20:42:00.258Z,77.10
2022-10-02T20:43:41.410Z,76.82
2022-10-02T20:45:14.581Z,76.76
2022-10-02T20:46:58.355Z,76.81
2022-10-02T20:49:07.473Z,77.22
2022-10-02T20:50:56.793Z,76.51
2022-10-02T20:53:10.626Z,77.37
2022-10-02T20:55:06.951Z,77.36
2022-10-02T20:57:07.469Z,77.60
2022-10-02T20:59:13.466Z,77.16
2022-10-02T21:01:09.926Z,77.42
2022-10-02T21:03:17.774Z,77.36
2022-10-02T21:05:00.946Z,77.40
2022-10-02T21:06:54.179Z,77.41
2022-10-02T21:08:33.024Z,77.49
2022-10-02T21:10:52.917Z,77.17
2022-10-02T21:12:38.006Z,77.42
2022-10-02T21:14:31.398Z,77.24
2022-10-02T21:16:21.824Z,77.19
2022-10-02T21:18:21.850Z,77.25
2022-10-02T21:20:50.112Z,77.36
2022-10-02T21:22:47.985Z,77.64
2022-10-02T21:24:35.137Z,77.71
2022-10-02T21:26:15.180Z,78.01
2022-10-02T21:28:00.393Z,77.98
2022-10-02T21:29:35.337Z,78.65
2022-10-02T21:31:33.587Z,78.48
2022-10-02T21:35:17.002Z,79.21
2022-10-02T21:36:59.255Z,79.33
2022-10-02T21:39:02.258Z,79.29
2022-10-02T21:40:48.911Z,79.02
2022-10-02T21:42:39.946Z,79.10
2022-10-02T21:44:33.542Z,79.19
2022-10-02T21:46:27.512Z,79.02
2022-10-02T21:48:21.254Z,78.88
2022-10-02T21:50:12.508Z,79.09
2022-10-02T21:52:05.011Z,79.04
2022-10-02T21:54:14.517Z,79.16
2022-10-02T21:56:30.619Z,79.30
2022-10-02T21:58:08.369Z,79.29
2022-10-02T22:00:16.669Z,78.71
2022-10-02T22:02:21.596Z,78.90
2022-10-02T22:04:12.329Z,78.78
2022-10-02T22:06:06.895Z,78.74
2022-10-02T22:07:46.170Z,78.71
2022-10-02T22:10:18.167Z,78.50
2022-10-02T22:12:12.942Z,78.12
2022-10-02T22:13:45.372Z,77.80
2022-10-02T22:15:26.798Z,78.18
2022-10-02T22:17:21.812Z,78.41
2022-10-02T22:19:16.587Z,78.69
2022-10-02T22:20:55.154Z,78.71
2022-10-02T22:22:58.070Z,78.82
2022-10-02T22:25:11.494Z,78.65
2022-10-02T22:27:21.547Z,78.59
2022-10-02T22:28:57.324Z,78.82
2022-10-02T22:30:30.876Z,78.90
2022-10-02T22:32:39.802Z,79.12
2022-10-02T22:34:31.209Z,79.22
2022-10-02T22:36:26.266Z,79.23
2022-10-02T22:39:38.449Z,78.86
2022-10-02T22:41:16.560Z,78.78
2022-10-02T22:43:01.927Z,78.82
2022-10-02T22:44:56.650Z,78.53
2022-10-02T22:46:31.280Z,78.71
2022-10-02T22:48:09.357Z,78.65
2022-10-02T22:49:58.437Z,78.75
2022-10-02T22:51:59.982Z,78.63
2022-10-02T22:53:48.610Z,78.71
2022-10-02T22:55:30.585Z,78.84
2022-10-02T22:57:02.547Z,78.66
2022-10-02T22:58:46.901Z,78.18
2022-10-02T23:00:33.679Z,78.18
2022-10-02T23:02:15.052Z,78.20
2022-10-02T23:03:51.393Z,78.76
2022-10-02T23:05:39.450Z,78.77
2022-10-02T23:07:17.243Z,78.76
2022-10-02T23:09:00.939Z,78.53
2022-10-02T23:10:38.512Z,78.49
2022-10-02T23:12:17.872Z,78.26
2022-10-02T23:14:08.210Z,78.36
2022-10-02T23:15:50.756Z,78.17
2022-10-02T23:17:31.764Z,78.27
2022-10-02T23:19:11.260Z,78.56
2022-10-02T23:21:04.531Z,78.37
2022-10-02T23:22:40.287Z,78.69
2022-10-02T23:24:12.201Z,78.74
2022-10-02T23:25:54.186Z,78.87
2022-10-02T23:27:35.484Z,78.51
2022-10-02T23:29:31.032Z,78.73
2022-10-02T23:31:11.441Z,78.91
2022-10-02T23:33:22.072Z,79.05
2022-10-02T23:35:05.584Z,79.22
2022-10-02T23:36:54.689Z,79.09
2022-10-02T23:38:52.308Z,79.04
2022-10-02T23:41:20.251Z,78.95
2022-10-02T23:42:56.229Z,78.92
2022-10-02T23:44:41.864Z,78.79
2022-10-02T23:46:18.953Z,78.76
2022-10-02T23:48:06.260Z,78.71
2022-10-02T23:49:45.806Z,78.68
2022-10-02T23:51:28.041Z,78.89
2022-10-02T23:54:55.497Z,78.89
2022-10-02T23:56:52.864Z,79.24
2022-10-02T23:58:50.173Z,79.48
